createdAt,value
2023-11-13T00:00:53.670Z,99477.78
2023-11-13T00:03:21.883Z,99471.47
2023-11-13T00:05:50.207Z,99527.44
2023-11-13T00:08:19.805Z,99525.44
2023-11-13T00:10:48.256Z,99529.00
2023-11-13T00:13:17.888Z,99524.22
2023-11-13T00:15:46.074Z,99526.38
2023-11-13T00:18:14.329Z,99524.75
2023-11-13T00:20:42.722Z,99542.06
2023-11-13T00:23:11.135Z,99549.94
2023-11-13T00:25:40.621Z,99540.69
2023-11-13T00:28:08.804Z,99502.13
2023-11-13T00:30:38.208Z,99556.59
2023-11-13T00:33:06.404Z,99544.25
2023-11-13T00:35:34.819Z,99546.75
2023-11-13T00:38:03.132Z,99550.44
2023-11-13T00:40:32.862Z,99542.84
2023-11-13T00:43:02.685Z,99553.25
2023-11-13T00:45:31.145Z,99513.66
2023-11-13T00:47:59.266Z,99569.91
2023-11-13T00:50:27.969Z,99576.22
2023-11-13T00:52:57.026Z,99579.91
2023-11-13T00:55:25.390Z,99578.72
2023-11-13T00:57:53.749Z,99582.16
2023-11-13T01:00:23.627Z,99584.63
2023-11-13T01:02:52.625Z,99574.44
2023-11-13T01:05:21.402Z,99576.31
2023-11-13T01:07:49.460Z,99580.72
2023-11-13T01:10:17.956Z,99592.72
2023-11-13T01:12:46.142Z,99586.16
2023-11-13T01:15:14.405Z,99583.44
2023-11-13T01:17:44.016Z,99571.81
2023-11-13T01:20:13.695Z,99581.53
2023-11-13T01:22:41.839Z,99573.13
2023-11-13T01:25:11.007Z,99557.78
2023-11-13T01:27:39.046Z,99525.84
2023-11-13T01:30:10.222Z,99538.31
2023-11-13T01:32:38.383Z,99539.88
2023-11-13T01:35:08.735Z,99537.38
2023-11-13T01:37:37.086Z,99537.88
2023-11-13T01:40:07.035Z,99521.72
2023-11-13T01:42:35.459Z,99542.84
2023-11-13T01:45:04.225Z,99555.34
2023-11-13T01:47:33.272Z,99551.34
2023-11-13T01:50:01.649Z,99561.47
2023-11-13T01:52:33.989Z,99541.69
2023-11-13T01:55:03.469Z,99566.13
2023-11-13T01:57:33.198Z,99563.25
2023-11-13T02:00:03.017Z,99570.53
2023-11-13T02:02:31.866Z,99569.44
2023-11-13T02:05:00.232Z,99552.47
2023-11-13T02:07:28.532Z,99564.94
2023-11-13T02:09:58.048Z,99558.03
2023-11-13T02:12:28.870Z,99557.94
2023-11-13T02:14:57.042Z,99549.50
2023-11-13T02:17:25.543Z,99509.84
2023-11-13T02:19:53.696Z,99409.69
2023-11-13T02:22:22.023Z,99543.09
2023-11-13T02:24:53.220Z,99548.09
2023-11-13T02:27:22.465Z,99518.75
2023-11-13T02:29:50.471Z,99549.75
2023-11-13T02:32:20.142Z,99556.03
2023-11-13T02:34:48.474Z,99550.09
2023-11-13T02:37:17.852Z,99546.66
2023-11-13T02:39:47.116Z,99551.41
2023-11-13T02:42:16.636Z,99553.06
2023-11-13T02:44:44.707Z,99502.72
2023-11-13T02:47:13.030Z,99555.69
2023-11-13T02:49:41.505Z,99514.72
2023-11-13T02:52:10.017Z,99520.41
2023-11-13T02:54:38.891Z,99547.47
2023-11-13T02:57:07.418Z,99543.66
2023-11-13T02:59:36.969Z,99518.41
2023-11-13T03:02:05.306Z,99554.94
2023-11-13T03:04:33.423Z,99504.03
2023-11-13T03:07:01.754Z,99553.97
2023-11-13T03:09:30.342Z,99555.09
2023-11-13T03:11:59.320Z,99547.97
2023-11-13T03:14:27.623Z,99550.44
2023-11-13T03:16:59.154Z,99557.13
2023-11-13T03:19:27.600Z,99558.91
2023-11-13T03:21:56.033Z,99553.78
2023-11-13T03:24:24.551Z,99547.97
2023-11-13T03:26:52.742Z,99490.38
2023-11-13T03:29:20.965Z,99549.22
2023-11-13T03:31:49.495Z,99556.97
2023-11-13T03:34:19.793Z,99550.56
2023-11-13T03:36:48.457Z,99532.19
2023-11-13T03:39:17.166Z,99562.06
2023-11-13T03:41:45.539Z,99536.53
2023-11-13T03:44:15.213Z,99552.94
2023-11-13T03:46:43.498Z,99556.88
2023-11-13T03:49:11.837Z,99551.88
2023-11-13T03:51:41.974Z,99554.84
2023-11-13T03:54:10.131Z,99566.16
2023-11-13T03:56:38.597Z,99560.66
2023-11-13T03:59:06.813Z,99560.19
2023-11-13T04:01:34.931Z,99557.69
2023-11-13T04:04:04.141Z,99570.28
2023-11-13T04:06:32.344Z,99570.41
2023-11-13T04:09:01.936Z,99568.13
2023-11-13T04:11:30.241Z,99561.13
2023-11-13T04:13:58.678Z,99559.00
2023-11-13T04:16:27.124Z,99559.00
2023-11-13T04:18:55.767Z,99562.09
2023-11-13T04:21:24.063Z,99553.78
2023-11-13T04:23:52.302Z,99560.19
2023-11-13T04:26:22.174Z,99522.78
2023-11-13T04:28:50.822Z,99551.28
2023-11-13T04:31:19.451Z,99555.44
2023-11-13T04:33:49.291Z,99531.47
2023-11-13T04:36:18.088Z,99565.88
2023-11-13T04:38:46.135Z,99568.16
2023-11-13T04:41:16.990Z,99583.09
2023-11-13T04:43:48.380Z,99548.56
2023-11-13T04:46:17.118Z,99583.94
2023-11-13T04:48:45.503Z,99572.44
2023-11-13T04:51:13.687Z,99584.41
2023-11-13T04:53:42.924Z,99601.97
2023-11-13T04:56:13.001Z,99595.09
2023-11-13T04:58:41.532Z,99596.97
2023-11-13T05:01:11.112Z,99603.16
2023-11-13T05:03:39.282Z,99531.63
2023-11-13T05:06:08.447Z,99562.56
2023-11-13T05:08:37.112Z,99623.25
2023-11-13T05:11:07.921Z,99596.03
2023-11-13T05:13:36.149Z,99636.91
2023-11-13T05:16:05.156Z,99581.91
2023-11-13T05:18:35.018Z,99633.91
2023-11-13T05:21:04.094Z,99642.94
2023-11-13T05:23:32.200Z,99363.16
2023-11-13T05:26:00.945Z,99642.09
2023-11-13T05:28:29.380Z,99594.63
2023-11-13T05:30:57.457Z,99645.88
2023-11-13T05:33:28.074Z,99652.31
2023-11-13T05:35:59.782Z,99656.72
2023-11-13T05:38:28.383Z,99628.16
2023-11-13T05:40:57.664Z,99546.19
2023-11-13T05:43:26.843Z,99673.81
2023-11-13T05:45:56.115Z,99674.78
2023-11-13T05:48:25.589Z,99637.81
2023-11-13T05:50:55.697Z,99690.75
2023-11-13T05:53:25.691Z,99686.75
2023-11-13T05:55:55.379Z,99691.72
2023-11-13T05:58:25.821Z,99685.78
2023-11-13T06:00:54.316Z,99669.88
2023-11-13T06:03:22.450Z,99684.63
2023-11-13T06:05:50.472Z,99688.94
2023-11-13T06:08:18.669Z,99684.28
2023-11-13T06:10:48.568Z,99637.44
2023-11-13T06:13:16.779Z,99696.75
2023-11-13T06:15:44.827Z,99644.13
2023-11-13T06:18:13.039Z,99699.84
2023-11-13T06:20:41.285Z,99698.19
2023-11-13T06:23:10.074Z,99709.13
2023-11-13T06:25:38.205Z,99706.25
2023-11-13T06:28:08.101Z,99708.06
2023-11-13T06:30:36.362Z,99706.75
2023-11-13T06:33:05.115Z,99711.50
2023-11-13T06:35:33.492Z,99709.34
2023-11-13T06:38:01.751Z,99719.25
2023-11-13T06:40:29.849Z,99690.13
2023-11-13T06:42:58.145Z,99733.28
2023-11-13T06:45:27.522Z,99739.09
2023-11-13T06:47:55.761Z,99724.94
2023-11-13T06:50:24.510Z,99745.50
2023-11-13T06:52:54.476Z,99687.59
2023-11-13T06:55:22.728Z,99743.94
2023-11-13T06:57:50.877Z,99687.81
2023-11-13T07:00:20.991Z,99748.56
2023-11-13T07:02:51.531Z,99744.56
2023-11-13T07:05:21.014Z,99729.44
2023-11-13T07:07:52.241Z,99748.38
2023-11-13T07:10:22.689Z,99695.56
2023-11-13T07:12:51.959Z,99736.09
2023-11-13T07:15:20.874Z,99746.69
2023-11-13T07:17:50.568Z,99748.13
2023-11-13T07:20:20.049Z,99748.84
2023-11-13T07:22:51.781Z,99743.50
2023-11-13T07:25:20.434Z,99744.69
2023-11-13T07:27:48.464Z,99743.34
2023-11-13T07:30:16.793Z,99735.25
2023-11-13T07:32:46.162Z,99733.13
2023-11-13T07:35:15.955Z,99732.88
2023-11-13T07:37:46.531Z,99706.63
2023-11-13T07:40:16.513Z,99720.03
2023-11-13T07:42:45.572Z,99719.75
2023-11-13T07:45:13.935Z,99717.94
2023-11-13T07:47:42.672Z,99727.72
2023-11-13T07:50:13.927Z,99720.22
2023-11-13T07:52:47.320Z,99722.09
2023-11-13T07:55:16.575Z,99731.69
2023-11-13T07:57:45.818Z,99712.66
2023-11-13T08:00:17.049Z,99718.09
2023-11-13T08:02:46.062Z,99719.16
2023-11-13T08:05:22.175Z,99721.06
2023-11-13T08:07:53.214Z,99715.00
2023-11-13T08:10:21.727Z,99714.00
2023-11-13T08:12:51.506Z,99723.13
2023-11-13T08:15:19.719Z,99721.84
2023-11-13T08:17:51.053Z,99721.44
2023-11-13T08:20:19.794Z,99698.47
2023-11-13T08:22:49.807Z,99712.63
2023-11-13T08:25:20.753Z,99704.44
2023-11-13T08:27:52.594Z,99711.41
2023-11-13T08:30:23.670Z,99653.78
2023-11-13T08:32:53.427Z,99710.81
2023-11-13T08:35:21.806Z,99718.19
2023-11-13T08:37:50.321Z,99714.44
2023-11-13T08:40:25.074Z,99711.16
2023-11-13T08:42:53.660Z,99708.59
2023-11-13T08:45:22.540Z,99705.84
2023-11-13T08:47:52.543Z,99713.47
2023-11-13T08:50:22.658Z,99720.56
2023-11-13T08:52:55.070Z,99722.75
2023-11-13T08:55:26.341Z,99730.84
2023-11-13T08:57:56.213Z,99713.94
2023-11-13T09:00:24.461Z,99716.63
2023-11-13T09:02:55.532Z,99729.50
2023-11-13T09:05:27.206Z,99724.75
2023-11-13T09:07:56.977Z,99694.34
2023-11-13T09:10:29.050Z,99723.69
2023-11-13T09:13:01.133Z,99661.97
2023-11-13T09:15:30.650Z,99709.06
2023-11-13T09:18:02.876Z,99705.63
2023-11-13T09:20:31.646Z,99683.41
2023-11-13T09:23:04.035Z,99700.81
2023-11-13T09:25:34.533Z,99661.59
2023-11-13T09:28:02.950Z,99685.97
2023-11-13T09:30:32.086Z,99678.50
2023-11-13T09:33:02.685Z,99642.19
2023-11-13T09:35:30.935Z,99661.66
2023-11-13T09:38:00.603Z,99632.19
2023-11-13T09:40:31.187Z,99653.31
2023-11-13T09:43:08.213Z,99647.81
2023-11-13T09:45:37.800Z,99652.06
2023-11-13T09:48:09.390Z,99647.22
2023-11-13T09:50:39.701Z,99466.72
2023-11-13T09:53:10.370Z,99645.25
2023-11-13T09:55:42.925Z,99640.34
2023-11-13T09:58:13.958Z,99643.81
2023-11-13T10:00:42.943Z,99644.09
2023-11-13T10:03:11.524Z,99630.63
2023-11-13T10:05:42.000Z,99608.50
2023-11-13T10:08:10.379Z,99587.53
2023-11-13T10:10:41.705Z,99618.56
2023-11-13T10:13:13.842Z,99621.34
2023-11-13T10:15:44.570Z,99624.75
2023-11-13T10:18:15.075Z,99625.06
2023-11-13T10:20:44.933Z,99643.34
2023-11-13T10:23:14.593Z,99639.66
2023-11-13T10:25:47.158Z,99641.59
2023-11-13T10:28:19.257Z,99653.84
2023-11-13T10:30:59.842Z,99643.22
2023-11-13T10:33:29.564Z,99639.53
2023-11-13T10:36:06.140Z,99635.06
2023-11-13T10:38:45.372Z,99636.50
2023-11-13T10:41:14.337Z,99642.56
2023-11-13T10:43:45.813Z,99640.53
2023-11-13T10:46:29.171Z,99629.81
2023-11-13T10:48:59.251Z,99624.28
2023-11-13T10:51:29.588Z,99604.22
2023-11-13T10:54:01.394Z,99630.34
2023-11-13T10:56:31.438Z,99636.47
2023-11-13T10:59:01.215Z,99608.38
2023-11-13T11:01:31.397Z,99631.25
2023-11-13T11:04:06.941Z,99625.84
2023-11-13T11:06:40.572Z,99631.25
2023-11-13T11:09:14.287Z,99613.41
2023-11-13T11:11:43.760Z,99629.53
2023-11-13T11:14:19.697Z,99623.78
2023-11-13T11:16:52.581Z,99626.59
2023-11-13T11:19:31.886Z,99615.75
2023-11-13T11:22:11.260Z,99613.25
2023-11-13T11:25:01.961Z,99592.00
2023-11-13T11:27:37.969Z,99616.88
2023-11-13T11:30:36.569Z,99614.81
2023-11-13T11:33:07.531Z,99619.56
2023-11-13T11:35:42.903Z,99615.53
2023-11-13T11:38:17.440Z,99588.88
2023-11-13T11:40:46.164Z,99620.94
2023-11-13T11:43:17.287Z,99609.72
2023-11-13T11:45:51.044Z,99603.44
2023-11-13T11:48:20.282Z,99611.41
2023-11-13T11:50:48.827Z,99542.25
2023-11-13T11:53:17.901Z,99555.56
2023-11-13T11:55:46.777Z,99609.38
2023-11-13T11:58:16.521Z,99610.13
2023-11-13T12:00:46.757Z,99617.81
2023-11-13T12:03:17.174Z,99616.41
2023-11-13T12:05:45.850Z,99609.22
2023-11-13T12:08:14.904Z,99605.97
2023-11-13T12:10:44.468Z,99597.41
2023-11-13T12:13:12.862Z,99591.75
2023-11-13T12:15:43.559Z,99597.28
2023-11-13T12:18:11.768Z,99603.63
2023-11-13T12:20:42.540Z,99597.50
2023-11-13T12:23:14.690Z,99600.00
2023-11-13T12:25:42.782Z,99515.22
2023-11-13T12:28:11.586Z,99603.63
2023-11-13T12:30:40.608Z,99593.97
2023-11-13T12:33:08.861Z,99589.59
2023-11-13T12:35:38.324Z,99577.75
2023-11-13T12:38:08.581Z,99589.53
2023-11-13T12:40:37.051Z,99598.22
2023-11-13T12:43:06.563Z,99596.09
2023-11-13T12:45:35.331Z,99587.19
2023-11-13T12:48:09.528Z,99595.94
2023-11-13T12:50:39.947Z,99581.38
2023-11-13T12:53:13.513Z,99558.72
2023-11-13T12:55:44.640Z,99602.69
2023-11-13T12:58:16.615Z,99598.59
2023-11-13T13:00:45.576Z,99588.84
2023-11-13T13:03:13.983Z,99583.56
2023-11-13T13:05:43.549Z,99592.66
2023-11-13T13:08:13.424Z,99587.34
2023-11-13T13:10:43.283Z,99516.09
2023-11-13T13:13:12.274Z,99581.78
2023-11-13T13:15:40.744Z,99454.81
2023-11-13T13:18:09.609Z,99580.59
2023-11-13T13:20:38.385Z,99585.50
2023-11-13T13:23:07.681Z,99561.22
2023-11-13T13:25:38.152Z,99573.69
2023-11-13T13:28:08.742Z,99579.19
2023-11-13T13:30:38.213Z,99553.25
2023-11-13T13:33:11.636Z,99569.72
2023-11-13T13:35:40.991Z,99554.09
2023-11-13T13:38:09.294Z,99561.44
2023-11-13T13:40:42.868Z,99549.75
2023-11-13T13:43:11.914Z,99543.63
2023-11-13T13:45:41.878Z,99556.16
2023-11-13T13:48:11.259Z,99553.97
2023-11-13T13:50:39.898Z,99567.72
2023-11-13T13:53:09.266Z,99560.59
2023-11-13T13:55:39.932Z,99565.59
2023-11-13T13:58:09.378Z,99570.72
2023-11-13T14:00:40.406Z,99558.38
2023-11-13T14:03:13.229Z,99551.81
2023-11-13T14:05:45.231Z,99546.03
2023-11-13T14:08:17.380Z,99557.94
2023-11-13T14:10:52.850Z,99562.19
2023-11-13T14:13:24.037Z,99556.38
2023-11-13T14:16:03.949Z,99533.25
2023-11-13T14:18:38.756Z,99565.72
2023-11-13T14:21:10.465Z,99567.38
2023-11-13T14:23:39.489Z,99568.69
2023-11-13T14:26:10.464Z,99563.94
2023-11-13T14:28:38.632Z,99566.44
2023-11-13T14:31:11.281Z,99569.91
2023-11-13T14:33:40.349Z,99559.50
2023-11-13T14:36:10.259Z,99563.75
2023-11-13T14:38:39.209Z,99542.09
2023-11-13T14:41:09.886Z,99529.56
2023-11-13T14:43:40.752Z,99526.50
2023-11-13T14:46:09.187Z,99561.69
2023-11-13T14:48:37.838Z,99551.47
2023-11-13T14:51:06.348Z,99545.31
2023-11-13T14:53:37.162Z,99564.09
2023-11-13T14:56:06.323Z,99568.56
2023-11-13T14:58:35.998Z,99573.63
2023-11-13T15:01:04.792Z,99505.22
2023-11-13T15:03:33.395Z,99570.72
2023-11-13T15:06:02.147Z,99568.69
2023-11-13T15:08:30.328Z,99568.81
2023-11-13T15:10:57.496Z,99576.88
2023-11-13T15:13:25.727Z,99572.50
2023-11-13T15:15:56.231Z,99547.31
2023-11-13T15:18:25.842Z,99574.69
2023-11-13T15:20:54.274Z,99588.63
2023-11-13T15:23:35.345Z,99589.53
2023-11-13T15:26:10.829Z,99588.72
2023-11-13T15:28:38.970Z,99598.34
2023-11-13T15:31:10.247Z,99569.91
2023-11-13T15:33:38.464Z,99602.66
2023-11-13T15:36:07.323Z,99601.16
2023-11-13T15:38:35.316Z,99603.66
2023-11-13T15:41:04.080Z,99565.13
2023-11-13T15:43:32.829Z,99525.66
2023-11-13T15:46:01.146Z,99603.94
2023-11-13T15:48:31.235Z,99603.25
2023-11-13T15:50:59.223Z,99556.59
2023-11-13T15:53:27.333Z,99603.69
2023-11-13T15:55:56.881Z,99575.53
2023-11-13T15:58:24.964Z,99607.19
2023-11-13T16:00:53.750Z,99611.63
2023-11-13T16:03:26.328Z,99616.47
2023-11-13T16:06:02.005Z,99582.34
2023-11-13T16:08:30.005Z,99546.94
2023-11-13T16:10:58.400Z,99627.78
2023-11-13T16:13:28.227Z,99619.34
2023-11-13T16:15:56.753Z,99626.00
2023-11-13T16:18:26.291Z,99598.03
2023-11-13T16:20:54.690Z,99604.13
2023-11-13T16:23:24.102Z,99629.81
2023-11-13T16:25:55.491Z,99635.63
2023-11-13T16:28:28.467Z,99639.72
2023-11-13T16:30:56.699Z,99644.81
2023-11-13T16:33:25.386Z,99620.72
2023-11-13T16:35:53.526Z,99638.56
2023-11-13T16:38:21.900Z,99659.69
2023-11-13T16:40:51.390Z,99638.81
2023-11-13T16:43:19.737Z,99644.22
2023-11-13T16:45:48.265Z,99614.94
2023-11-13T16:48:16.548Z,99556.72
2023-11-13T16:50:45.331Z,99613.34
2023-11-13T16:53:15.161Z,99631.59
2023-11-13T16:55:43.650Z,99669.13
2023-11-13T16:58:13.479Z,99522.69
2023-11-13T17:00:42.327Z,99660.94
2023-11-13T17:03:11.044Z,99607.78
2023-11-13T17:05:39.311Z,99664.69
2023-11-13T17:08:07.499Z,99666.94
2023-11-13T17:10:38.237Z,99672.47
2023-11-13T17:13:07.534Z,99670.97
2023-11-13T17:15:37.411Z,99623.19
2023-11-13T17:18:06.221Z,99649.53
2023-11-13T17:20:40.751Z,99653.56
2023-11-13T17:23:09.540Z,99675.94
2023-11-13T17:25:37.648Z,99653.13
2023-11-13T17:28:06.138Z,99680.56
2023-11-13T17:30:34.826Z,99671.31
2023-11-13T17:33:06.412Z,99687.56
2023-11-13T17:35:33.537Z,99689.31
2023-11-13T17:38:01.468Z,99668.34
2023-11-13T17:40:29.784Z,99681.88
2023-11-13T17:42:58.123Z,99691.59
2023-11-13T17:45:27.248Z,99697.41
2023-11-13T17:47:59.589Z,99693.19
2023-11-13T17:50:32.690Z,99682.31
2023-11-13T17:53:01.531Z,99701.72
2023-11-13T17:55:30.157Z,99715.75
2023-11-13T17:57:58.696Z,99713.41
2023-11-13T18:00:27.042Z,99652.00
2023-11-13T18:02:55.196Z,99687.75
2023-11-13T18:05:23.630Z,99700.31
2023-11-13T18:07:53.653Z,99702.34
2023-11-13T18:10:22.299Z,99695.56
2023-11-13T18:12:51.145Z,99708.97
2023-11-13T18:15:19.140Z,99700.88
2023-11-13T18:17:48.613Z,99696.75
2023-11-13T18:20:19.525Z,99669.91
2023-11-13T18:22:49.058Z,99700.66
2023-11-13T18:25:19.410Z,99690.81
2023-11-13T18:27:47.706Z,99690.84
2023-11-13T18:30:17.440Z,99685.97
2023-11-13T18:32:45.787Z,99685.38
2023-11-13T18:35:14.042Z,99686.81
2023-11-13T18:37:42.987Z,99687.97
2023-11-13T18:40:12.422Z,99690.34
2023-11-13T18:42:41.868Z,99556.72
2023-11-13T18:45:11.610Z,99646.06
2023-11-13T18:47:40.046Z,99687.63
2023-11-13T18:50:09.239Z,99693.81
2023-11-13T18:52:37.858Z,99695.25
2023-11-13T18:55:08.155Z,99652.81
2023-11-13T18:57:36.715Z,99704.16
2023-11-13T19:00:09.216Z,99704.88
2023-11-13T19:02:38.017Z,99702.72
2023-11-13T19:05:10.245Z,99650.72
2023-11-13T19:07:38.450Z,99715.88
2023-11-13T19:10:07.522Z,99716.09
2023-11-13T19:12:35.641Z,99689.47
2023-11-13T19:15:05.521Z,99718.44
2023-11-13T19:17:35.149Z,99713.06
2023-11-13T19:20:06.580Z,99717.13
2023-11-13T19:22:35.329Z,99730.06
2023-11-13T19:25:03.543Z,99718.19
2023-11-13T19:27:31.633Z,99697.47
2023-11-13T19:29:59.810Z,99733.06
2023-11-13T19:32:29.422Z,99735.50
2023-11-13T19:34:59.283Z,99736.84
2023-11-13T19:37:27.548Z,99722.16
2023-11-13T19:39:55.591Z,99736.28
2023-11-13T19:42:23.913Z,99729.03
2023-11-13T19:44:53.634Z,99753.09
2023-11-13T19:47:22.141Z,99752.34
2023-11-13T19:49:51.977Z,99755.16
2023-11-13T19:52:24.702Z,99742.75
2023-11-13T19:54:57.167Z,99753.03
2023-11-13T19:57:25.142Z,99733.28
2023-11-13T19:59:53.347Z,99741.53
2023-11-13T20:02:21.499Z,99763.22
2023-11-13T20:04:50.645Z,99757.34
2023-11-13T20:07:20.591Z,99758.28
2023-11-13T20:09:48.590Z,99772.69
2023-11-13T20:12:18.152Z,99768.94
2023-11-13T20:14:46.241Z,99754.25
2023-11-13T20:17:14.418Z,99775.81
2023-11-13T20:19:43.010Z,99789.28
2023-11-13T20:22:11.699Z,99794.69
2023-11-13T20:24:41.211Z,99767.91
2023-11-13T20:27:09.323Z,99801.66
2023-11-13T20:29:37.684Z,99794.41
2023-11-13T20:32:06.577Z,99798.34
2023-11-13T20:34:34.724Z,99776.16
2023-11-13T20:37:03.011Z,99792.81
2023-11-13T20:39:31.190Z,99768.28
2023-11-13T20:42:01.531Z,99797.72
2023-11-13T20:44:29.730Z,99791.06
2023-11-13T20:46:58.533Z,99798.16
2023-11-13T20:49:26.673Z,99804.28
2023-11-13T20:51:54.866Z,99793.13
2023-11-13T20:54:23.195Z,99814.59
2023-11-13T20:56:51.584Z,99812.16
2023-11-13T20:59:21.123Z,99819.91
2023-11-13T21:01:49.356Z,99830.91
2023-11-13T21:04:19.159Z,99806.59
2023-11-13T21:06:47.601Z,99837.75
2023-11-13T21:09:16.854Z,99832.44
2023-11-13T21:11:46.650Z,99837.03
2023-11-13T21:14:15.916Z,99840.97
2023-11-13T21:16:45.643Z,99842.97
2023-11-13T21:19:15.115Z,99818.03
2023-11-13T21:21:43.543Z,99847.25
2023-11-13T21:24:13.099Z,99847.50
2023-11-13T21:26:41.157Z,99842.78
2023-11-13T21:29:09.707Z,99842.91
2023-11-13T21:31:38.054Z,99842.81
2023-11-13T21:34:08.314Z,99853.66
2023-11-13T21:36:36.686Z,99851.91
2023-11-13T21:39:08.687Z,99838.00
2023-11-13T21:41:37.502Z,99845.13
2023-11-13T21:44:06.495Z,99851.38
2023-11-13T21:46:34.791Z,99853.31
2023-11-13T21:49:03.297Z,99849.22
2023-11-13T21:51:34.764Z,99850.63
2023-11-13T21:54:04.956Z,99845.50
2023-11-13T21:56:33.436Z,99840.50
2023-11-13T21:59:01.545Z,99850.81
2023-11-13T22:01:30.096Z,99855.75
2023-11-13T22:03:58.292Z,99855.56
2023-11-13T22:06:26.461Z,99847.69
2023-11-13T22:08:56.118Z,99835.63
2023-11-13T22:11:24.492Z,99863.56
2023-11-13T22:13:52.770Z,99865.31
2023-11-13T22:16:21.766Z,99868.03
2023-11-13T22:18:49.983Z,99873.69
2023-11-13T22:21:18.383Z,99868.28
2023-11-13T22:23:47.953Z,99863.28
2023-11-13T22:26:17.513Z,99854.91
2023-11-13T22:28:45.919Z,99863.00
2023-11-13T22:31:14.240Z,99866.34
2023-11-13T22:33:42.736Z,99868.09
2023-11-13T22:36:11.348Z,99861.53
2023-11-13T22:38:40.709Z,99859.91
2023-11-13T22:41:08.867Z,99860.28
2023-11-13T22:43:38.387Z,99840.53
2023-11-13T22:46:07.014Z,99845.72
2023-11-13T22:48:35.642Z,99809.25
2023-11-13T22:51:03.812Z,99836.44
2023-11-13T22:53:32.222Z,99849.72
2023-11-13T22:56:00.652Z,99786.00
2023-11-13T22:58:28.979Z,99847.03
2023-11-13T23:00:59.484Z,99842.94
2023-11-13T23:03:28.551Z,99845.34
2023-11-13T23:05:56.969Z,99825.28
2023-11-13T23:08:25.994Z,99811.44
2023-11-13T23:10:56.432Z,99841.47
2023-11-13T23:13:24.787Z,99809.31
2023-11-13T23:15:52.783Z,99830.69
2023-11-13T23:18:23.096Z,99831.13
2023-11-13T23:20:51.271Z,99727.63
2023-11-13T23:23:19.456Z,99813.09
2023-11-13T23:25:49.570Z,99822.84
2023-11-13T23:28:20.044Z,99802.44
2023-11-13T23:30:48.228Z,99827.50
2023-11-13T23:33:16.536Z,99815.78
2023-11-13T23:35:46.328Z,99831.34
2023-11-13T23:38:14.455Z,99792.47
2023-11-13T23:40:42.748Z,99833.22
2023-11-13T23:43:11.024Z,99835.66
2023-11-13T23:45:39.261Z,99822.41
2023-11-13T23:48:08.155Z,99819.75
2023-11-13T23:50:36.329Z,99829.97
2023-11-13T23:53:06.146Z,99810.19
2023-11-13T23:55:35.122Z,99845.25
2023-11-13T23:58:03.266Z,99833.09
